Time;durP1;ratioP1;P1;durP2;ratioP2;P2;SDS_P1;SDS_P2;PMS_P1;PMS_P2;Temp;Humidity;BMP_temperature;BMP_pressure;BME280_temperature;BME280_humidity;BME280_pressure;Samples;Min_cycle;Max_cycle;Signal;HPM_P1;HPM_P2
2023/08/13 00:01:44;;;;;;;14.60;4.35;;;22.40;99.90;;;;;;5050991;28;20040;-60
2023/08/13 00:04:10;;;;;;;13.88;4.50;;;22.40;99.90;;;;;;5051003;28;20032;-59
2023/08/13 00:06:35;;;;;;;18.17;5.43;;;22.40;99.90;;;;;;5050836;28;20029;-60
2023/08/13 00:09:02;;;;;;;15.18;4.82;;;22.40;99.90;;;;;;5051384;28;20036;-59
2023/08/13 00:11:27;;;;;;;14.85;4.47;;;22.40;99.90;;;;;;5050955;28;20036;-60
2023/08/13 00:13:53;;;;;;;16.85;4.72;;;22.30;99.90;;;;;;5054584;28;20041;-60
2023/08/13 00:16:19;;;;;;;15.68;4.68;;;22.20;99.90;;;;;;5055120;28;20108;-59
2023/08/13 00:18:45;;;;;;;15.02;5.10;;;22.40;99.90;;;;;;5054985;28;20033;-60
2023/08/13 00:21:11;;;;;;;14.32;5.05;;;22.40;99.90;;;;;;5054972;28;20082;-60
2023/08/13 00:23:37;;;;;;;15.80;4.40;;;22.30;99.90;;;;;;5054949;28;20087;-60
2023/08/13 00:26:03;;;;;;;12.40;4.50;;;22.00;99.90;;;;;;5054850;28;20049;-60
2023/08/13 00:28:29;;;;;;;19.98;5.45;;;21.80;99.90;;;;;;5054777;28;20600;-60
2023/08/13 00:30:54;;;;;;;16.85;4.85;;;21.70;99.90;;;;;;5055130;28;20486;-60
2023/08/13 00:33:20;;;;;;;16.88;4.90;;;21.60;99.90;;;;;;5054345;28;20115;-59
2023/08/13 00:35:46;;;;;;;16.08;4.85;;;21.50;99.90;;;;;;5054775;28;20096;-60
2023/08/13 00:38:12;;;;;;;14.05;4.57;;;21.50;99.90;;;;;;5054590;28;20029;-59
2023/08/13 00:40:37;;;;;;;15.20;4.53;;;21.40;99.90;;;;;;5055012;28;20032;-60
2023/08/13 00:43:03;;;;;;;15.70;4.50;;;21.40;99.90;;;;;;5054429;28;20033;-60
2023/08/13 00:45:33;;;;;;;16.05;4.50;;;21.40;99.90;;;;;;5054556;28;20100;-59
2023/08/13 00:47:59;;;;;;;16.35;5.00;;;21.30;99.90;;;;;;5054137;28;20037;-59
2023/08/13 00:50:26;;;;;;;16.83;4.65;;;21.30;99.90;;;;;;5054514;28;20371;-60
2023/08/13 00:52:51;;;;;;;18.48;5.05;;;21.30;99.90;;;;;;5054537;28;20021;-60
2023/08/13 00:55:17;;;;;;;13.52;4.70;;;21.30;99.90;;;;;;5054947;28;20028;-59
2023/08/13 00:57:43;;;;;;;16.67;4.60;;;21.30;99.90;;;;;;5054338;28;20097;-60
2023/08/13 01:00:10;;;;;;;20.15;5.65;;;21.30;99.90;;;;;;5054156;28;20040;-60
2023/08/13 01:02:37;;;;;;;13.55;5.18;;;21.20;99.90;;;;;;5054298;28;20152;-60
2023/08/13 01:05:05;;;;;;;17.10;5.47;;;21.20;99.90;;;;;;5053840;28;20040;-59
2023/08/13 01:07:40;;;;;;;14.75;5.07;;;21.50;99.90;;;;;;5054096;28;20032;-60
2023/08/13 01:10:33;;;;;;;14.80;5.22;;;21.70;99.90;;;;;;5054462;28;20041;-60
2023/08/13 01:13:42;;;;;;;15.02;5.18;;;21.80;99.90;;;;;;5054054;28;20074;-59
2023/08/13 01:16:09;;;;;;;16.73;5.18;;;21.90;99.90;;;;;;5050748;28;20041;-59
2023/08/13 01:18:36;;;;;;;18.08;5.45;;;22.00;99.90;;;;;;5054017;28;20538;-60
2023/08/13 01:21:02;;;;;;;16.98;5.13;;;22.00;99.90;;;;;;5053929;28;20108;-60
2023/08/13 01:23:28;;;;;;;15.70;5.22;;;22.00;99.90;;;;;;5053662;28;20104;-60
2023/08/13 01:25:58;;;;;;;17.92;5.00;;;22.00;99.90;;;;;;5053647;28;20041;-60
2023/08/13 01:28:36;;;;;;;14.30;4.93;;;22.00;99.90;;;;;;5053699;28;20397;-59
2023/08/13 01:31:11;;;;;;;15.57;5.47;;;22.10;99.90;;;;;;5053693;28;20052;-60
2023/08/13 01:33:41;;;;;;;15.45;5.13;;;22.10;99.90;;;;;;5053438;28;20552;-60
2023/08/13 01:36:07;;;;;;;15.68;5.15;;;22.00;99.90;;;;;;5053931;28;20036;-60
2023/08/13 01:38:34;;;;;;;18.50;5.57;;;22.00;99.90;;;;;;5053681;28;20033;-60
2023/08/13 01:41:04;;;;;;;16.20;5.45;;;21.80;99.90;;;;;;5053463;28;20064;-60
2023/08/13 01:43:30;;;;;;;15.25;5.68;;;21.60;99.90;;;;;;5053496;28;20024;-60
2023/08/13 01:45:57;;;;;;;16.33;5.15;;;21.40;99.90;;;;;;5053090;28;20426;-59
2023/08/13 01:48:23;;;;;;;18.13;5.55;;;21.20;99.90;;;;;;5053309;28;20048;-59
2023/08/13 01:50:49;;;;;;;19.08;5.85;;;21.20;99.90;;;;;;5053249;28;20548;-60
2023/08/13 01:53:14;;;;;;;17.88;5.30;;;21.10;99.90;;;;;;5053318;28;20020;-60
2023/08/13 01:55:40;;;;;;;15.23;5.22;;;21.10;99.90;;;;;;5053604;28;20078;-59
2023/08/13 01:58:07;;;;;;;17.42;5.35;;;21.00;99.90;;;;;;5053118;28;20048;-60
2023/08/13 02:00:33;;;;;;;21.70;5.90;;;20.90;99.90;;;;;;5052847;28;20448;-60
2023/08/13 02:02:59;;;;;;;17.13;5.55;;;20.90;99.90;;;;;;5053443;28;20021;-59
2023/08/13 02:05:24;;;;;;;20.33;5.80;;;20.80;99.90;;;;;;5053012;28;20049;-60
2023/08/13 02:07:50;;;;;;;14.48;4.88;;;20.80;99.90;;;;;;5053064;28;20033;-59
2023/08/13 02:10:16;;;;;;;16.10;5.00;;;20.80;99.90;;;;;;5052935;28;20118;-60
2023/08/13 02:12:41;;;;;;;18.80;5.30;;;20.80;99.90;;;;;;5052129;28;20041;-60
2023/08/13 02:15:07;;;;;;;14.85;4.90;;;20.80;99.90;;;;;;5052376;28;20032;-60
2023/08/13 02:17:33;;;;;;;17.58;5.40;;;20.80;99.90;;;;;;5052858;28;20048;-59
2023/08/13 02:19:59;;;;;;;17.48;5.55;;;20.80;99.90;;;;;;5053103;28;20104;-60
2023/08/13 02:22:24;;;;;;;19.00;5.43;;;20.80;99.90;;;;;;5052729;28;20025;-59
2023/08/13 02:24:50;;;;;;;16.13;5.47;;;21.00;99.90;;;;;;5052393;28;20465;-60
2023/08/13 02:27:15;;;;;;;16.95;5.28;;;21.30;99.90;;;;;;5052602;28;20033;-59
2023/08/13 02:29:42;;;;;;;17.83;5.30;;;21.40;99.90;;;;;;5052151;28;20076;-60
2023/08/13 02:32:08;;;;;;;18.75;5.80;;;21.60;99.90;;;;;;5052596;28;20029;-60
2023/08/13 02:34:41;;;;;;;17.90;5.25;;;21.70;99.90;;;;;;5052141;28;20074;-60
2023/08/13 02:37:07;;;;;;;15.88;5.13;;;21.70;99.90;;;;;;5052255;28;20082;-60
2023/08/13 02:39:33;;;;;;;13.40;4.65;;;21.80;99.90;;;;;;5052377;28;20390;-59
2023/08/13 02:41:58;;;;;;;17.98;5.70;;;21.70;99.90;;;;;;5052224;28;20399;-58
2023/08/13 02:44:26;;;;;;;15.98;5.22;;;21.70;99.90;;;;;;5052307;28;20107;-59
2023/08/13 02:46:52;;;;;;;18.38;5.53;;;21.70;99.90;;;;;;5052184;28;20043;-60
2023/08/13 02:49:18;;;;;;;17.80;5.40;;;21.70;99.90;;;;;;5052113;28;20045;-59
2023/08/13 02:51:43;;;;;;;15.45;4.80;;;21.60;99.90;;;;;;5052117;28;20459;-60
2023/08/13 02:54:09;;;;;;;14.27;5.20;;;21.50;99.90;;;;;;5050656;28;20021;-59
2023/08/13 02:56:35;;;;;;;13.48;5.13;;;21.40;99.90;;;;;;5052371;28;20479;-60
2023/08/13 02:59:00;;;;;;;13.45;4.80;;;21.30;99.90;;;;;;5052043;28;20093;-59
2023/08/13 03:01:26;;;;;;;16.30;5.53;;;21.10;99.90;;;;;;5052121;28;20029;-60
2023/08/13 03:03:52;;;;;;;15.30;5.22;;;20.90;99.90;;;;;;5051936;28;20512;-60
2023/08/13 03:06:22;;;;;;;13.77;5.10;;;20.80;99.90;;;;;;5051860;28;20029;-60
2023/08/13 03:08:48;;;;;;;16.00;5.90;;;20.70;99.90;;;;;;5051599;28;20033;-60
2023/08/13 03:11:14;;;;;;;13.45;5.07;;;20.60;99.90;;;;;;5052368;28;20021;-60
2023/08/13 03:13:40;;;;;;;15.80;5.35;;;20.60;99.90;;;;;;5051273;28;20032;-59
2023/08/13 03:16:05;;;;;;;14.13;5.30;;;20.50;99.90;;;;;;5051662;28;20021;-60
2023/08/13 03:18:31;;;;;;;15.05;5.25;;;20.40;99.90;;;;;;5051741;28;20505;-58
2023/08/13 03:20:57;;;;;;;16.67;5.53;;;20.30;99.90;;;;;;5051943;28;20017;-60
2023/08/13 03:23:23;;;;;;;14.90;4.82;;;20.30;99.90;;;;;;5051776;28;20025;-59
2023/08/13 03:25:48;;;;;;;15.73;5.20;;;20.30;99.90;;;;;;5051355;28;20124;-60
2023/08/13 03:28:14;;;;;;;16.92;5.57;;;20.30;99.90;;;;;;5051428;28;20037;-60
2023/08/13 03:30:39;;;;;;;18.63;5.55;;;20.30;99.90;;;;;;5051457;28;20478;-60
2023/08/13 03:33:05;;;;;;;18.00;5.72;;;20.20;99.90;;;;;;5051364;28;20112;-60
2023/08/13 03:35:36;;;;;;;20.23;5.40;;;20.20;99.90;;;;;;5051406;28;20025;-60
2023/08/13 03:38:01;;;;;;;18.52;5.30;;;20.20;99.90;;;;;;5051327;28;20394;-60
2023/08/13 03:40:27;;;;;;;20.85;5.65;;;20.20;99.90;;;;;;5051244;28;20029;-59
2023/08/13 03:42:53;;;;;;;15.73;5.25;;;20.20;99.90;;;;;;5051352;28;20032;-59
2023/08/13 03:45:18;;;;;;;17.88;5.32;;;20.40;99.90;;;;;;5051149;28;20071;-59
2023/08/13 03:47:44;;;;;;;16.50;5.82;;;20.60;99.90;;;;;;5050309;28;20029;-60
2023/08/13 03:50:10;;;;;;;16.92;5.00;;;20.80;99.90;;;;;;5051553;28;20367;-59
2023/08/13 03:52:35;;;;;;;12.85;5.13;;;20.90;99.90;;;;;;5051229;28;20112;-59
2023/08/13 03:55:01;;;;;;;13.82;4.85;;;21.00;99.90;;;;;;5050976;28;20032;-59
2023/08/13 03:57:27;;;;;;;14.50;4.88;;;20.90;99.90;;;;;;5051179;28;20021;-59
2023/08/13 03:59:52;;;;;;;15.85;5.18;;;21.00;99.90;;;;;;5049837;28;20082;-59
2023/08/13 04:02:18;;;;;;;16.38;4.95;;;20.90;99.90;;;;;;5050989;28;20053;-59
2023/08/13 04:04:44;;;;;;;14.18;4.82;;;20.90;99.90;;;;;;5049702;28;20505;-59
2023/08/13 04:07:09;;;;;;;14.23;4.80;;;21.10;99.90;;;;;;5051070;28;20517;-59
2023/08/13 04:09:35;;;;;;;14.82;4.55;;;21.20;99.90;;;;;;5051292;28;20088;-59
2023/08/13 04:12:01;;;;;;;16.73;5.03;;;21.10;99.90;;;;;;5050722;28;20040;-59
2023/08/13 04:14:26;;;;;;;13.40;4.43;;;21.00;99.90;;;;;;5050725;28;20062;-60
2023/08/13 04:16:52;;;;;;;14.65;4.68;;;20.90;99.90;;;;;;5050952;28;20114;-59
2023/08/13 04:19:18;;;;;;;15.45;4.72;;;20.70;99.90;;;;;;5051253;28;20032;-59
2023/08/13 04:21:43;;;;;;;15.50;4.82;;;20.50;99.90;;;;;;5050893;28;20124;-60
2023/08/13 04:24:09;;;;;;;14.20;4.63;;;20.40;99.90;;;;;;5050452;28;20033;-59
2023/08/13 04:26:35;;;;;;;13.98;4.70;;;20.30;99.90;;;;;;5050653;28;20036;-59
2023/08/13 04:29:01;;;;;;;15.73;5.28;;;20.20;99.90;;;;;;5050774;28;20550;-60
2023/08/13 04:31:26;;;;;;;15.98;4.60;;;20.10;99.90;;;;;;5051338;28;20028;-60
2023/08/13 04:33:52;;;;;;;16.00;4.90;;;20.10;99.90;;;;;;5050767;28;20079;-59
2023/08/13 04:36:18;;;;;;;12.15;4.53;;;20.10;99.90;;;;;;5050698;28;20501;-60
2023/08/13 04:38:43;;;;;;;13.63;5.30;;;20.10;99.90;;;;;;5051043;28;20456;-59
2023/08/13 04:41:09;;;;;;;16.55;4.80;;;20.10;99.90;;;;;;5050413;28;20532;-59
2023/08/13 04:43:35;;;;;;;12.77;4.38;;;20.00;99.90;;;;;;5050644;28;20040;-59
2023/08/13 04:46:00;;;;;;;15.85;4.43;;;20.10;99.90;;;;;;5050645;28;20071;-60
2023/08/13 04:48:45;;;;;;;15.80;5.03;;;20.10;99.90;;;;;;5050670;28;20043;-60
2023/08/13 04:51:11;;;;;;;14.73;4.85;;;20.00;99.90;;;;;;5050639;28;20021;-59
2023/08/13 04:53:37;;;;;;;13.90;4.38;;;20.00;99.90;;;;;;5050893;28;20044;-59
2023/08/13 04:56:05;;;;;;;14.68;4.60;;;20.00;99.90;;;;;;5050113;28;20028;-60
2023/08/13 04:58:31;;;;;;;14.05;4.82;;;19.90;99.90;;;;;;5052033;28;20036;-59
2023/08/13 05:00:56;;;;;;;14.43;4.25;;;20.00;99.90;;;;;;5054329;28;20402;-59
2023/08/13 05:03:22;;;;;;;13.27;4.90;;;20.20;99.90;;;;;;5054175;28;20492;-59
2023/08/13 05:05:48;;;;;;;12.75;4.10;;;20.40;99.90;;;;;;5054604;28;20436;-59
2023/08/13 05:08:13;;;;;;;13.07;4.45;;;20.60;99.90;;;;;;5054039;28;20029;-59
2023/08/13 05:10:39;;;;;;;12.18;4.07;;;20.70;99.90;;;;;;5053849;28;20397;-59
2023/08/13 05:13:04;;;;;;;16.05;4.60;;;20.70;99.90;;;;;;5054072;28;20052;-59
2023/08/13 05:15:30;;;;;;;11.23;3.95;;;20.80;99.90;;;;;;5053760;28;20071;-60
2023/08/13 05:17:57;;;;;;;10.70;4.18;;;20.80;99.90;;;;;;5054040;28;20064;-59
2023/08/13 05:20:23;;;;;;;14.52;4.38;;;20.90;99.90;;;;;;5054184;28;20024;-59
2023/08/13 05:22:49;;;;;;;13.48;4.32;;;20.90;99.90;;;;;;5053745;28;20025;-59
2023/08/13 05:25:15;;;;;;;12.45;4.00;;;20.90;99.90;;;;;;5053333;28;20056;-59
2023/08/13 05:27:40;;;;;;;13.30;4.28;;;20.90;99.90;;;;;;5053589;28;20482;-59
2023/08/13 05:30:07;;;;;;;14.35;4.35;;;20.90;99.90;;;;;;5053717;28;20065;-60
2023/08/13 05:32:32;;;;;;;15.68;4.43;;;20.90;99.90;;;;;;5054175;28;20025;-59
2023/08/13 05:34:58;;;;;;;13.13;3.88;;;20.70;99.90;;;;;;5053600;28;20103;-60
2023/08/13 05:37:24;;;;;;;14.00;4.38;;;20.50;99.90;;;;;;5053578;28;20028;-60
2023/08/13 05:39:50;;;;;;;14.55;4.47;;;20.40;99.90;;;;;;5052320;28;20025;-59
2023/08/13 05:42:16;;;;;;;11.68;4.05;;;20.30;99.90;;;;;;5053678;28;20078;-60
2023/08/13 05:44:42;;;;;;;14.07;4.10;;;20.20;99.90;;;;;;5053442;28;20021;-60
2023/08/13 05:47:07;;;;;;;10.75;4.00;;;20.20;99.90;;;;;;5053470;28;20025;-59
2023/08/13 05:49:33;;;;;;;12.73;4.07;;;20.10;99.90;;;;;;5053235;28;20033;-60
2023/08/13 05:51:59;;;;;;;13.98;4.50;;;20.10;99.90;;;;;;5053453;28;20028;-60
2023/08/13 05:54:24;;;;;;;14.38;4.32;;;20.10;99.90;;;;;;5052945;28;20559;-60
2023/08/13 05:56:50;;;;;;;12.95;4.40;;;20.10;99.90;;;;;;5053654;28;20548;-60
2023/08/13 05:59:16;;;;;;;14.05;4.40;;;20.00;99.90;;;;;;5053306;28;20033;-60
2023/08/13 06:01:41;;;;;;;16.08;4.60;;;20.00;99.90;;;;;;5053285;28;20087;-59
2023/08/13 06:04:07;;;;;;;13.50;4.28;;;20.00;99.90;;;;;;5052949;28;20029;-58
2023/08/13 06:06:32;;;;;;;14.23;4.38;;;20.10;99.90;;;;;;5053205;28;20033;-59
2023/08/13 06:08:58;;;;;;;12.07;4.38;;;20.00;99.90;;;;;;5034792;28;20032;-59
2023/08/13 06:11:24;;;;;;;14.57;4.40;;;20.00;99.90;;;;;;5051991;28;20033;-60
2023/08/13 06:13:50;;;;;;;14.95;4.28;;;20.00;99.90;;;;;;5053215;28;20025;-60
2023/08/13 06:16:16;;;;;;;12.98;4.20;;;20.00;99.90;;;;;;5052990;28;20032;-59
2023/08/13 06:18:42;;;;;;;11.55;3.95;;;20.00;99.90;;;;;;5052855;28;20024;-60
2023/08/13 06:21:08;;;;;;;13.90;4.50;;;20.20;99.90;;;;;;5053189;28;20390;-59
2023/08/13 06:23:34;;;;;;;13.77;4.32;;;20.40;99.90;;;;;;5052487;28;20100;-60
2023/08/13 06:25:59;;;;;;;13.00;4.20;;;20.60;99.90;;;;;;5052568;28;20041;-60
2023/08/13 06:28:25;;;;;;;15.48;4.40;;;20.80;99.90;;;;;;5052687;28;20037;-59
2023/08/13 06:30:51;;;;;;;14.70;3.97;;;20.80;99.90;;;;;;5052593;28;20033;-60
2023/08/13 06:33:17;;;;;;;11.30;4.20;;;20.90;99.90;;;;;;5052463;28;20048;-60
2023/08/13 06:35:46;;;;;;;11.38;3.92;;;20.90;99.90;;;;;;5052239;28;20075;-60
2023/08/13 06:38:13;;;;;;;11.68;4.15;;;21.00;99.90;;;;;;5052480;28;20091;-59
2023/08/13 06:40:38;;;;;;;13.68;4.00;;;21.10;99.90;;;;;;5052526;28;20070;-59
2023/08/13 06:43:04;;;;;;;13.15;4.28;;;21.10;99.90;;;;;;5051072;28;20036;-60
2023/08/13 06:45:30;;;;;;;10.95;3.88;;;21.20;99.90;;;;;;5052278;28;20056;-59
2023/08/13 06:47:59;;;;;;;15.68;4.53;;;21.20;99.90;;;;;;5052595;28;20036;-59
2023/08/13 06:50:25;;;;;;;12.10;4.03;;;21.10;99.90;;;;;;5052047;28;20028;-59
2023/08/13 06:52:52;;;;;;;19.33;4.22;;;21.00;99.90;;;;;;5052176;28;20103;-59
2023/08/13 06:55:18;;;;;;;14.38;4.13;;;20.90;99.90;;;;;;5050999;28;20063;-60
2023/08/13 06:57:46;;;;;;;12.15;3.63;;;20.80;99.90;;;;;;5052339;28;20052;-60
2023/08/13 07:00:12;;;;;;;10.88;3.65;;;20.70;99.90;;;;;;5052016;28;20041;-59
2023/08/13 07:02:38;;;;;;;12.35;4.10;;;20.60;99.90;;;;;;5052119;28;20709;-60
2023/08/13 07:05:05;;;;;;;13.32;4.03;;;20.50;99.90;;;;;;5051796;28;20025;-60
2023/08/13 07:07:33;;;;;;;16.80;3.72;;;20.50;99.90;;;;;;5052009;28;20029;-60
2023/08/13 07:09:59;;;;;;;13.95;4.20;;;20.50;99.90;;;;;;5051861;28;20107;-60
2023/08/13 07:12:25;;;;;;;12.15;3.95;;;20.50;99.90;;;;;;5052424;28;20055;-60
2023/08/13 07:14:50;;;;;;;11.50;3.78;;;20.60;99.90;;;;;;5051621;28;20060;-59
2023/08/13 07:17:16;;;;;;;12.55;3.55;;;20.60;99.90;;;;;;5051874;28;20051;-60
2023/08/13 07:19:42;;;;;;;11.10;3.83;;;20.60;99.90;;;;;;5051600;28;20029;-59
2023/08/13 07:22:08;;;;;;;13.93;4.20;;;20.60;99.90;;;;;;5052141;28;20048;-60
2023/08/13 07:24:34;;;;;;;12.95;4.03;;;20.60;99.90;;;;;;5051791;28;20128;-60
2023/08/13 07:27:00;;;;;;;10.50;3.75;;;20.70;99.90;;;;;;5051738;28;20033;-60
2023/08/13 07:29:25;;;;;;;12.75;3.72;;;20.70;99.90;;;;;;5052178;28;20036;-60
2023/08/13 07:31:51;;;;;;;12.60;3.60;;;20.80;99.90;;;;;;5051968;28;20029;-60
2023/08/13 07:34:17;;;;;;;13.27;3.75;;;20.80;99.90;;;;;;5051111;28;20100;-60
2023/08/13 07:36:43;;;;;;;14.68;4.28;;;20.90;99.90;;;;;;5051485;28;20032;-60
2023/08/13 07:39:09;;;;;;;10.20;3.65;;;21.10;99.90;;;;;;5051731;28;20025;-59
2023/08/13 07:41:36;;;;;;;13.25;3.47;;;21.40;99.90;;;;;;5051564;28;20100;-60
2023/08/13 07:44:01;;;;;;;13.77;3.95;;;21.50;99.90;;;;;;5051415;28;20424;-59
2023/08/13 07:46:27;;;;;;;11.38;3.72;;;21.80;99.90;;;;;;5051361;28;20055;-59
2023/08/13 07:48:53;;;;;;;14.25;4.10;;;22.00;99.90;;;;;;5050823;28;20037;-59
2023/08/13 07:51:20;;;;;;;9.85;3.30;;;22.00;99.90;;;;;;5051778;28;20029;-59
2023/08/13 07:53:45;;;;;;;11.75;3.58;;;22.00;99.90;;;;;;5051069;28;20032;-59
2023/08/13 07:56:11;;;;;;;13.90;4.07;;;22.10;99.90;;;;;;5051850;28;20029;-60
2023/08/13 07:58:38;;;;;;;15.00;3.80;;;22.30;99.90;;;;;;5051228;28;20013;-60
2023/08/13 08:01:04;;;;;;;12.07;3.70;;;22.40;99.90;;;;;;5051071;28;20075;-60
2023/08/13 08:03:30;;;;;;;16.42;3.80;;;22.40;99.90;;;;;;5051029;28;20056;-60
2023/08/13 08:05:55;;;;;;;10.18;4.13;;;22.50;99.90;;;;;;5051065;28;20490;-60
2023/08/13 08:08:21;;;;;;;11.15;3.53;;;22.50;99.90;;;;;;5050758;28;20036;-60
2023/08/13 08:10:47;;;;;;;12.15;3.88;;;22.50;99.90;;;;;;5051266;28;20449;-60
2023/08/13 08:13:13;;;;;;;11.45;3.67;;;22.20;99.90;;;;;;5051163;28;20486;-60
2023/08/13 08:15:38;;;;;;;11.05;3.38;;;22.10;99.90;;;;;;5050850;28;20072;-60
2023/08/13 08:18:04;;;;;;;13.40;4.30;;;21.80;99.90;;;;;;5050597;28;20072;-60
2023/08/13 08:20:30;;;;;;;10.18;3.85;;;21.90;99.90;;;;;;5051363;28;20014;-60
2023/08/13 08:22:55;;;;;;;10.07;3.58;;;21.90;99.90;;;;;;5050846;28;20079;-60
2023/08/13 08:25:21;;;;;;;10.55;3.40;;;21.80;99.90;;;;;;5050691;28;20049;-60
2023/08/13 08:27:47;;;;;;;13.02;3.53;;;21.80;99.90;;;;;;5050906;28;20033;-59
2023/08/13 08:30:13;;;;;;;11.65;3.55;;;21.90;99.90;;;;;;5050936;28;20080;-60
2023/08/13 08:32:38;;;;;;;11.48;3.58;;;21.90;99.90;;;;;;5050261;28;20109;-59
2023/08/13 08:35:05;;;;;;;11.57;3.72;;;22.00;99.90;;;;;;5054612;28;20028;-59
2023/08/13 08:37:32;;;;;;;12.00;3.58;;;22.10;99.90;;;;;;5055074;28;20398;-59
2023/08/13 08:39:58;;;;;;;11.23;3.47;;;22.00;99.90;;;;;;5054736;28;20036;-60
2023/08/13 08:42:25;;;;;;;11.75;3.38;;;22.00;99.90;;;;;;5054687;28;20049;-59
2023/08/13 08:44:51;;;;;;;10.02;3.45;;;22.00;99.90;;;;;;5054772;28;20026;-59
2023/08/13 08:47:18;;;;;;;13.45;4.10;;;22.20;99.90;;;;;;5054353;28;20040;-59
2023/08/13 08:49:46;;;;;;;12.73;3.70;;;22.30;99.90;;;;;;5054516;28;20045;-59
2023/08/13 08:52:12;;;;;;;12.05;3.70;;;22.20;99.90;;;;;;5054386;28;20111;-59
2023/08/13 08:54:41;;;;;;;13.38;3.28;;;22.30;99.90;;;;;;5054322;28;20029;-59
2023/08/13 08:57:07;;;;;;;14.57;3.53;;;22.50;99.90;;;;;;5054462;28;20037;-59
2023/08/13 08:59:34;;;;;;;11.93;3.50;;;22.70;99.90;;;;;;5054213;28;20029;-59
2023/08/13 09:02:00;;;;;;;11.75;3.42;;;22.90;99.90;;;;;;5053968;28;20021;-59
2023/08/13 09:04:25;;;;;;;9.98;3.10;;;23.10;99.90;;;;;;5054648;28;20266;-60
2023/08/13 09:06:58;;;;;;;10.40;3.58;;;23.10;99.90;;;;;;5054251;28;20034;-59
2023/08/13 09:09:25;;;;;;;14.48;3.60;;;23.20;99.90;;;;;;5054127;28;20052;-59
2023/08/13 09:11:52;;;;;;;10.95;3.35;;;23.20;99.90;;;;;;5054693;28;20033;-59
2023/08/13 09:14:18;;;;;;;12.30;3.40;;;23.20;99.90;;;;;;5053826;28;20036;-58
2023/08/13 09:16:48;;;;;;;9.65;3.15;;;23.30;99.90;;;;;;5053732;28;20036;-59
2023/08/13 09:19:15;;;;;;;12.02;3.63;;;23.20;99.90;;;;;;5054010;28;20029;-59
2023/08/13 09:21:57;;;;;;;10.35;3.15;;;23.30;99.90;;;;;;5053963;28;20060;-59
2023/08/13 09:24:41;;;;;;;12.73;3.05;;;23.30;99.90;;;;;;5053715;28;20053;-59
2023/08/13 09:27:07;;;;;;;;;;;23.50;99.90;;;;;;5054632;28;20036;-60
2023/08/13 09:29:34;;;;;;;11.02;3.20;;;23.30;99.90;;;;;;5053705;28;20373;-59
2023/08/13 09:32:01;;;;;;;10.55;3.65;;;23.30;99.90;;;;;;5053468;28;20056;-59
2023/08/13 09:34:28;;;;;;;9.57;2.95;;;23.20;99.90;;;;;;5053713;28;20083;-59
2023/08/13 09:36:55;;;;;;;16.52;4.15;;;23.00;99.90;;;;;;5053565;28;20036;-59
2023/08/13 09:39:25;;;;;;;12.07;3.45;;;22.90;99.90;;;;;;5053642;28;20021;-59
2023/08/13 09:41:52;;;;;;;12.07;3.42;;;22.80;99.90;;;;;;5053949;28;20080;-59
2023/08/13 09:44:20;;;;;;;13.18;3.45;;;22.80;99.90;;;;;;5053003;28;20021;-59
2023/08/13 09:46:54;;;;;;;8.65;2.90;;;22.90;99.90;;;;;;5053430;28;20037;-59
2023/08/13 09:49:23;;;;;;;10.48;3.30;;;23.00;99.90;;;;;;5053376;28;20029;-59
2023/08/13 09:51:52;;;;;;;10.75;3.30;;;23.10;99.90;;;;;;5053331;28;20029;-59
2023/08/13 09:54:29;;;;;;;9.00;2.90;;;23.20;99.90;;;;;;5053162;28;20037;-58
2023/08/13 09:57:03;;;;;;;10.35;3.25;;;23.20;99.90;;;;;;5053243;28;20032;-59
2023/08/13 09:59:31;;;;;;;14.50;3.78;;;23.20;99.90;;;;;;5053277;28;20024;-59
2023/08/13 10:01:57;;;;;;;12.18;3.47;;;23.10;99.90;;;;;;5053275;28;20110;-59
2023/08/13 10:04:24;;;;;;;10.82;3.22;;;23.20;99.90;;;;;;5053094;28;20025;-59
2023/08/13 10:06:51;;;;;;;9.63;3.28;;;23.10;99.90;;;;;;5053416;28;20064;-58
2023/08/13 10:09:17;;;;;;;8.75;3.35;;;23.30;99.90;;;;;;5053069;28;20514;-59
2023/08/13 10:11:42;;;;;;;9.20;3.00;;;23.40;99.90;;;;;;5052900;28;20033;-59
2023/08/13 10:14:10;;;;;;;8.63;3.17;;;23.50;99.90;;;;;;5052680;28;20032;-59
2023/08/13 10:16:38;;;;;;;9.45;3.45;;;23.50;99.90;;;;;;5052712;28;20067;-59
2023/08/13 10:19:07;;;;;;;12.70;3.42;;;23.90;99.90;;;;;;5053175;28;20043;-59
2023/08/13 10:21:36;;;;;;;10.15;3.38;;;24.20;99.90;;;;;;5052819;28;20032;-59
2023/08/13 10:24:04;;;;;;;10.68;4.05;;;24.20;99.90;;;;;;5052647;28;20024;-59
2023/08/13 10:26:30;;;;;;;11.13;3.55;;;24.30;99.90;;;;;;5052588;28;20072;-59
2023/08/13 10:28:56;;;;;;;11.38;3.40;;;24.20;99.90;;;;;;5052364;28;20412;-59
2023/08/13 10:31:29;;;;;;;10.93;3.20;;;24.50;99.90;;;;;;5053068;28;20074;-59
2023/08/13 10:34:11;;;;;;;;;;;24.80;99.90;;;;;;5053439;28;20029;-59
2023/08/13 10:36:52;;;;;;;8.00;3.22;;;24.80;99.90;;;;;;5052743;28;20277;-59
2023/08/13 10:39:32;;;;;;;9.70;2.95;;;24.90;99.90;;;;;;5052603;28;20037;-60
2023/08/13 10:41:58;;;;;;;11.80;3.55;;;24.90;99.90;;;;;;5052426;28;20393;-59
2023/08/13 10:44:28;;;;;;;7.75;2.97;;;24.90;99.90;;;;;;5052073;28;20033;-59
2023/08/13 10:46:55;;;;;;;9.07;3.55;;;24.90;99.90;;;;;;5052348;28;20055;-59
2023/08/13 10:49:21;;;;;;;11.23;3.63;;;24.90;99.90;;;;;;5052173;28;20041;-59
2023/08/13 10:51:50;;;;;;;9.82;3.58;;;24.90;99.90;;;;;;5052665;28;20031;-59
2023/08/13 10:54:17;;;;;;;11.32;4.13;;;24.80;99.90;;;;;;5052070;28;20522;-59
2023/08/13 10:56:42;;;;;;;10.88;3.70;;;24.80;99.90;;;;;;5051315;28;20048;-57
2023/08/13 10:59:10;;;;;;;10.57;3.50;;;24.70;99.90;;;;;;5052409;28;20029;-60
2023/08/13 11:02:11;;;;;;;10.20;3.55;;;24.50;99.90;;;;;;5052281;28;20060;-59
2023/08/13 11:04:38;;;;;;;13.30;3.60;;;24.40;99.90;;;;;;5052039;28;20047;-60
2023/08/13 11:07:03;;;;;;;9.80;3.00;;;24.40;99.90;;;;;;5051956;28;20031;-59
2023/08/13 11:09:30;;;;;;;12.55;3.53;;;24.40;99.90;;;;;;5051638;28;20036;-59
2023/08/13 11:11:56;;;;;;;9.43;2.97;;;24.40;99.90;;;;;;5051922;28;20052;-59
2023/08/13 11:14:22;;;;;;;11.30;3.15;;;24.40;99.90;;;;;;5051336;28;20033;-59
2023/08/13 11:16:48;;;;;;;11.30;3.33;;;24.50;99.90;;;;;;5052123;28;20059;-59
2023/08/13 11:19:13;;;;;;;10.27;3.47;;;24.50;99.90;;;;;;5051628;28;20070;-59
2023/08/13 11:21:39;;;;;;;8.10;2.75;;;24.60;99.90;;;;;;5051658;28;20104;-59
2023/08/13 11:24:08;;;;;;;10.00;3.13;;;24.70;99.90;;;;;;5051300;28;20033;-59
2023/08/13 11:26:34;;;;;;;9.95;3.20;;;24.50;99.90;;;;;;5051373;28;20031;-60
2023/08/13 11:29:00;;;;;;;11.38;3.22;;;24.50;99.90;;;;;;5050514;28;20041;-59
2023/08/13 11:31:26;;;;;;;9.13;3.05;;;24.60;99.90;;;;;;5051548;28;20025;-59
2023/08/13 11:33:51;;;;;;;8.82;2.97;;;24.60;99.90;;;;;;5051440;28;20024;-59
2023/08/13 11:36:18;;;;;;;8.15;3.05;;;24.60;99.90;;;;;;5051458;28;20383;-59
2023/08/13 11:38:44;;;;;;;11.45;3.42;;;25.10;99.90;;;;;;5051679;28;20402;-59
2023/08/13 11:41:13;;;;;;;8.93;3.08;;;25.00;99.90;;;;;;5050952;28;20021;-60
2023/08/13 11:43:39;;;;;;;10.88;3.13;;;25.10;99.90;;;;;;5049920;28;20557;-59
2023/08/13 11:46:05;;;;;;;10.05;3.20;;;25.40;99.90;;;;;;5051166;28;20116;-59
2023/08/13 11:48:32;;;;;;;10.35;3.00;;;25.60;99.90;;;;;;5051258;28;20055;-59
2023/08/13 11:51:15;;;;;;;9.50;3.08;;;25.60;99.90;;;;;;5051473;28;20025;-59
2023/08/13 11:53:45;;;;;;;11.27;3.10;;;25.60;99.90;;;;;;5051125;28;20115;-59
2023/08/13 11:56:12;;;;;;;7.38;3.05;;;25.70;99.90;;;;;;5051153;28;20037;-59
2023/08/13 11:58:39;;;;;;;8.32;2.78;;;25.70;99.90;;;;;;5051191;28;20029;-59
2023/08/13 12:01:05;;;;;;;9.35;3.25;;;25.90;99.90;;;;;;5051197;28;20033;-59
2023/08/13 12:03:41;;;;;;;8.25;2.85;;;25.90;99.90;;;;;;5050955;28;20105;-59
2023/08/13 12:06:07;;;;;;;8.82;3.20;;;26.00;99.90;;;;;;5051388;28;20033;-59
2023/08/13 12:08:34;;;;;;;9.60;3.10;;;25.80;99.90;;;;;;5049968;28;20029;-59
2023/08/13 12:11:00;;;;;;;9.30;3.00;;;25.90;99.90;;;;;;5050716;28;20510;-59
2023/08/13 12:13:28;;;;;;;11.48;3.13;;;25.90;99.90;;;;;;5050979;28;20507;-59
2023/08/13 12:15:54;;;;;;;9.35;3.05;;;26.00;99.90;;;;;;5051370;28;20462;-60
2023/08/13 12:18:19;;;;;;;7.72;2.92;;;26.10;99.90;;;;;;5050854;28;20053;-59
2023/08/13 12:20:45;;;;;;;9.07;3.03;;;25.90;99.90;;;;;;5050976;28;20025;-60
2023/08/13 12:23:11;;;;;;;9.77;3.30;;;25.90;99.90;;;;;;5050790;28;20060;-59
2023/08/13 12:25:36;;;;;;;8.82;2.85;;;25.90;99.90;;;;;;5050793;28;20082;-59
2023/08/13 12:28:03;;;;;;;7.63;2.83;;;25.80;99.90;;;;;;5050820;28;20454;-59
2023/08/13 12:30:29;;;;;;;9.93;3.17;;;25.80;99.90;;;;;;5050996;28;20409;-59
2023/08/13 12:32:55;;;;;;;9.13;3.00;;;25.70;99.90;;;;;;5050808;28;20079;-60
2023/08/13 12:35:22;;;;;;;8.10;3.00;;;25.90;99.90;;;;;;5050802;28;20053;-60
2023/08/13 12:37:48;;;;;;;9.05;3.13;;;25.80;99.90;;;;;;5050696;28;20031;-60